Lester Prairie, MN (55354)

10:58 PM CDT on August 27, 2015 (GMT -0500)
Lester Prairie | | Change Station
CLOSE
Current Station
Personal Weather Station
Location: Lester Prairie, MN
Elevation: 978 ft
Nearby Weather Stations

Elev 978 ft 44.89 °N, 94.05 °W | Updated 28 seconds ago

Partly Cloudy
Partly Cloudy
63.0 °F
Feels Like 63.0 °F
N
0.0
Wind Variable Wind from South

Today
High -- | Low -- °F
--% Chance of Precip.
Yesterday
High -- | Low -- °F
Precip. -- in
6:32 AM 8:02 PM
Waxing Gibbous, 96% visible
Pressure 29.99 in
Visibility 10.0 miles
Clouds Clear
Dew Point 61 °F
Humidity 93%
Rainfall 0.02 in
Snow Depth Not available.
UV 0 out of 12
Pollen 8.80 out of 12
Air Quality Not available.
Flu Activity Not available.
METAR KGYL 280354Z AUTO 12003KT 10SM CLR 17/17 A2999 RMK AO2 LTG DSNT S T01730165
Pressure 29.99 in
Visibility 10.0 miles
Clouds Clear
Dew Point 61 °F
Humidity 93%
Rainfall 0.02 in
Snow Depth Not available.
UV 0 out of 12
Pollen 8.80 out of 12
Air Quality Not available.
Flu Activity Not available.
METAR KGYL 280354Z AUTO 12003KT 10SM CLR 17/17 A2999 RMK AO2 LTG DSNT S T01730165

10-Day Weather Forecast

×

Almanac

Astronomy

Aug. 27, 2015 Rise Set
Actual Time
Civil Twilight
Nautical Twilight
Astronomical Twilight
Moon
Length of Visible Light
Length of Day
Tomorrow will be .
, % of the Moon is Illuminated

Today's Extremes

State Highs State Lows

Community

WunderPhotos

Upload Photos

1,850,317 photos uploaded!

WunderBlogs® & News

Nearby

Air Quality

  Air Quality AQ Index Pollutant
Not available.

Snow Depth

Station Depth Elevation

Earthquake Activity

City Distance Mag. Time & Date
Minimum magnitude displayed is 2.5.

Coastal Water Temperatures

Place Temperature

Stations

Nearby Weather Stations

Station Location Temp. Windchill Dew Point Humidity Wind Precip. Elev Updated Type